sensor_id;sensor_type;location;lat;lon;timestamp;temperature;humidity
8611;DHT22;4343;53.648;10.098;2023-07-24T00:02:08;17.40;99.90
8611;DHT22;4343;53.648;10.098;2023-07-24T00:04:34;17.40;99.90
8611;DHT22;4343;53.648;10.098;2023-07-24T00:07:00;17.40;99.90
8611;DHT22;4343;53.648;10.098;2023-07-24T00:09:26;17.40;99.90
8611;DHT22;4343;53.648;10.098;2023-07-24T00:11:51;17.40;99.90
8611;DHT22;4343;53.648;10.098;2023-07-24T00:14:17;17.40;99.90
8611;DHT22;4343;53.648;10.098;2023-07-24T00:16:42;17.40;99.90
8611;DHT22;4343;53.648;10.098;2023-07-24T00:19:08;17.40;99.90
8611;DHT22;4343;53.648;10.098;2023-07-24T00:21:33;17.40;99.90
8611;DHT22;4343;53.648;10.098;2023-07-24T00:23:59;17.40;99.90
8611;DHT22;4343;53.648;10.098;2023-07-24T00:26:24;17.40;99.90
8611;DHT22;4343;53.648;10.098;2023-07-24T00:28:50;17.40;99.90
8611;DHT22;4343;53.648;10.098;2023-07-24T00:31:16;17.40;99.90
8611;DHT22;4343;53.648;10.098;2023-07-24T00:33:41;17.40;99.90
8611;DHT22;4343;53.648;10.098;2023-07-24T00:36:07;17.40;99.90
8611;DHT22;4343;53.648;10.098;2023-07-24T00:38:32;17.40;99.90
8611;DHT22;4343;53.648;10.098;2023-07-24T00:40:58;17.40;99.90
8611;DHT22;4343;53.648;10.098;2023-07-24T00:43:23;17.40;99.90
8611;DHT22;4343;53.648;10.098;2023-07-24T00:45:49;17.40;99.90
8611;DHT22;4343;53.648;10.098;2023-07-24T00:48:15;17.40;99.90
8611;DHT22;4343;53.648;10.098;2023-07-24T00:50:42;17.40;99.90
8611;DHT22;4343;53.648;10.098;2023-07-24T00:53:09;17.40;99.90
8611;DHT22;4343;53.648;10.098;2023-07-24T00:55:35;17.40;99.90
8611;DHT22;4343;53.648;10.098;2023-07-24T00:58:03;17.40;99.90
8611;DHT22;4343;53.648;10.098;2023-07-24T01:00:28;17.40;99.90
8611;DHT22;4343;53.648;10.098;2023-07-24T01:02:55;17.40;99.90
8611;DHT22;4343;53.648;10.098;2023-07-24T01:05:22;17.40;99.90
8611;DHT22;4343;53.648;10.098;2023-07-24T01:07:50;17.40;99.90
8611;DHT22;4343;53.648;10.098;2023-07-24T01:10:15;17.40;99.90
8611;DHT22;4343;53.648;10.098;2023-07-24T01:13:01;17.40;99.90
8611;DHT22;4343;53.648;10.098;2023-07-24T01:15:38;17.40;99.90
8611;DHT22;4343;53.648;10.098;2023-07-24T01:18:08;17.40;99.90
8611;DHT22;4343;53.648;10.098;2023-07-24T01:20:36;17.40;99.90
8611;DHT22;4343;53.648;10.098;2023-07-24T01:26:00;17.40;99.90
8611;DHT22;4343;53.648;10.098;2023-07-24T01:28:26;17.40;99.90
8611;DHT22;4343;53.648;10.098;2023-07-24T01:30:52;17.40;99.90
8611;DHT22;4343;53.648;10.098;2023-07-24T01:33:18;17.40;99.90
8611;DHT22;4343;53.648;10.098;2023-07-24T01:35:44;17.40;99.90
8611;DHT22;4343;53.648;10.098;2023-07-24T01:38:12;17.40;99.90
8611;DHT22;4343;53.648;10.098;2023-07-24T01:40:40;17.40;99.90
8611;DHT22;4343;53.648;10.098;2023-07-24T01:43:06;17.40;99.90
8611;DHT22;4343;53.648;10.098;2023-07-24T01:45:31;17.50;99.90
8611;DHT22;4343;53.648;10.098;2023-07-24T01:47:57;17.50;99.90
8611;DHT22;4343;53.648;10.098;2023-07-24T01:50:23;17.50;99.90
8611;DHT22;4343;53.648;10.098;2023-07-24T01:52:48;17.50;99.90
8611;DHT22;4343;53.648;10.098;2023-07-24T01:55:14;17.50;99.90
8611;DHT22;4343;53.648;10.098;2023-07-24T01:57:39;17.50;99.90
8611;DHT22;4343;53.648;10.098;2023-07-24T02:00:05;17.50;99.90
8611;DHT22;4343;53.648;10.098;2023-07-24T02:02:31;17.50;99.90
8611;DHT22;4343;53.648;10.098;2023-07-24T02:04:56;17.50;99.90
8611;DHT22;4343;53.648;10.098;2023-07-24T02:07:22;17.50;99.90
8611;DHT22;4343;53.648;10.098;2023-07-24T02:09:48;17.50;99.90
8611;DHT22;4343;53.648;10.098;2023-07-24T02:12:13;17.50;99.90
8611;DHT22;4343;53.648;10.098;2023-07-24T02:14:39;17.50;99.90
8611;DHT22;4343;53.648;10.098;2023-07-24T02:17:04;17.50;99.90
8611;DHT22;4343;53.648;10.098;2023-07-24T02:19:30;17.50;99.90
8611;DHT22;4343;53.648;10.098;2023-07-24T02:21:56;17.50;99.90
8611;DHT22;4343;53.648;10.098;2023-07-24T02:24:21;17.50;99.90
8611;DHT22;4343;53.648;10.098;2023-07-24T02:26:47;17.50;99.90
8611;DHT22;4343;53.648;10.098;2023-07-24T02:29:12;17.50;99.90
8611;DHT22;4343;53.648;10.098;2023-07-24T02:31:38;17.50;99.90
8611;DHT22;4343;53.648;10.098;2023-07-24T02:34:03;17.40;99.90
8611;DHT22;4343;53.648;10.098;2023-07-24T02:36:29;17.40;99.90
8611;DHT22;4343;53.648;10.098;2023-07-24T02:38:54;17.40;99.90
8611;DHT22;4343;53.648;10.098;2023-07-24T02:41:20;17.40;99.90
8611;DHT22;4343;53.648;10.098;2023-07-24T02:43:45;17.40;99.90
8611;DHT22;4343;53.648;10.098;2023-07-24T02:46:11;17.40;99.90
8611;DHT22;4343;53.648;10.098;2023-07-24T02:48:36;17.40;99.90
8611;DHT22;4343;53.648;10.098;2023-07-24T02:51:02;17.40;99.90
8611;DHT22;4343;53.648;10.098;2023-07-24T02:53:27;17.40;99.90
8611;DHT22;4343;53.648;10.098;2023-07-24T02:55:53;17.40;99.90
8611;DHT22;4343;53.648;10.098;2023-07-24T02:58:18;17.40;99.90
8611;DHT22;4343;53.648;10.098;2023-07-24T03:00:44;17.40;99.90
8611;DHT22;4343;53.648;10.098;2023-07-24T03:03:09;17.40;99.90
8611;DHT22;4343;53.648;10.098;2023-07-24T03:05:35;17.40;99.90
8611;DHT22;4343;53.648;10.098;2023-07-24T03:08:00;17.40;99.90
8611;DHT22;4343;53.648;10.098;2023-07-24T03:10:26;17.40;99.90
8611;DHT22;4343;53.648;10.098;2023-07-24T03:12:51;17.30;99.90
8611;DHT22;4343;53.648;10.098;2023-07-24T03:15:17;17.30;99.90
8611;DHT22;4343;53.648;10.098;2023-07-24T03:17:42;17.30;99.90
8611;DHT22;4343;53.648;10.098;2023-07-24T03:20:09;17.30;99.90
8611;DHT22;4343;53.648;10.098;2023-07-24T03:22:35;17.30;99.90
8611;DHT22;4343;53.648;10.098;2023-07-24T03:25:01;17.30;99.90
8611;DHT22;4343;53.648;10.098;2023-07-24T03:27:27;17.30;99.90
8611;DHT22;4343;53.648;10.098;2023-07-24T03:29:52;17.30;99.90
8611;DHT22;4343;53.648;10.098;2023-07-24T03:32:18;17.30;99.90
8611;DHT22;4343;53.648;10.098;2023-07-24T03:34:43;17.30;99.90
8611;DHT22;4343;53.648;10.098;2023-07-24T03:37:09;17.30;99.90
8611;DHT22;4343;53.648;10.098;2023-07-24T03:39:34;17.30;99.90
8611;DHT22;4343;53.648;10.098;2023-07-24T03:42:00;17.30;99.90
8611;DHT22;4343;53.648;10.098;2023-07-24T03:44:25;17.30;99.90
8611;DHT22;4343;53.648;10.098;2023-07-24T03:46:51;17.30;99.90
8611;DHT22;4343;53.648;10.098;2023-07-24T03:49:16;17.30;99.90
8611;DHT22;4343;53.648;10.098;2023-07-24T03:51:42;17.30;99.90
8611;DHT22;4343;53.648;10.098;2023-07-24T03:54:07;17.30;99.90
8611;DHT22;4343;53.648;10.098;2023-07-24T03:56:33;17.30;99.90
8611;DHT22;4343;53.648;10.098;2023-07-24T03:58:58;17.30;99.90
8611;DHT22;4343;53.648;10.098;2023-07-24T04:01:24;17.30;99.90
8611;DHT22;4343;53.648;10.098;2023-07-24T04:03:49;17.30;99.90
8611;DHT22;4343;53.648;10.098;2023-07-24T04:06:15;17.30;99.90
8611;DHT22;4343;53.648;10.098;2023-07-24T04:08:40;17.40;99.90
8611;DHT22;4343;53.648;10.098;2023-07-24T04:11:06;17.30;99.90
8611;DHT22;4343;53.648;10.098;2023-07-24T04:13:31;17.30;99.90
8611;DHT22;4343;53.648;10.098;2023-07-24T04:15:57;17.40;99.90
8611;DHT22;4343;53.648;10.098;2023-07-24T04:18:24;17.40;99.90
8611;DHT22;4343;53.648;10.098;2023-07-24T04:20:50;17.40;99.90
8611;DHT22;4343;53.648;10.098;2023-07-24T04:23:15;17.40;99.90
8611;DHT22;4343;53.648;10.098;2023-07-24T04:25:41;17.40;99.90
8611;DHT22;4343;53.648;10.098;2023-07-24T04:28:06;17.40;99.90
8611;DHT22;4343;53.648;10.098;2023-07-24T04:30:32;17.40;99.90
8611;DHT22;4343;53.648;10.098;2023-07-24T04:32:58;17.40;99.90
8611;DHT22;4343;53.648;10.098;2023-07-24T04:35:24;17.40;99.90
8611;DHT22;4343;53.648;10.098;2023-07-24T04:37:49;17.40;99.90
8611;DHT22;4343;53.648;10.098;2023-07-24T04:40:16;17.50;99.90
8611;DHT22;4343;53.648;10.098;2023-07-24T04:42:42;17.50;99.90
8611;DHT22;4343;53.648;10.098;2023-07-24T04:45:08;17.50;99.90
8611;DHT22;4343;53.648;10.098;2023-07-24T04:47:33;17.50;99.90
8611;DHT22;4343;53.648;10.098;2023-07-24T04:49:59;17.50;99.90
8611;DHT22;4343;53.648;10.098;2023-07-24T04:52:24;17.50;99.90
8611;DHT22;4343;53.648;10.098;2023-07-24T04:54:50;17.50;99.90
8611;DHT22;4343;53.648;10.098;2023-07-24T04:57:15;17.50;99.90
8611;DHT22;4343;53.648;10.098;2023-07-24T04:59:41;17.50;99.90
8611;DHT22;4343;53.648;10.098;2023-07-24T05:02:06;17.50;99.90
8611;DHT22;4343;53.648;10.098;2023-07-24T05:04:32;17.60;99.90
8611;DHT22;4343;53.648;10.098;2023-07-24T05:06:57;17.60;99.90
8611;DHT22;4343;53.648;10.098;2023-07-24T05:09:23;17.60;99.90
8611;DHT22;4343;53.648;10.098;2023-07-24T05:11:48;17.60;99.90
8611;DHT22;4343;53.648;10.098;2023-07-24T05:14:14;17.60;99.90
8611;DHT22;4343;53.648;10.098;2023-07-24T05:16:39;17.60;99.90
8611;DHT22;4343;53.648;10.098;2023-07-24T05:19:05;17.60;99.90
8611;DHT22;4343;53.648;10.098;2023-07-24T05:21:30;17.60;99.90
8611;DHT22;4343;53.648;10.098;2023-07-24T05:23:56;17.70;99.90
8611;DHT22;4343;53.648;10.098;2023-07-24T05:26:21;17.70;99.90
8611;DHT22;4343;53.648;10.098;2023-07-24T05:28:47;17.70;99.90
8611;DHT22;4343;53.648;10.098;2023-07-24T05:31:13;17.70;99.90
8611;DHT22;4343;53.648;10.098;2023-07-24T05:33:38;17.80;99.90
8611;DHT22;4343;53.648;10.098;2023-07-24T05:36:04;17.80;99.90
8611;DHT22;4343;53.648;10.098;2023-07-24T05:38:30;17.80;99.90
8611;DHT22;4343;53.648;10.098;2023-07-24T05:43:22;17.90;99.90
8611;DHT22;4343;53.648;10.098;2023-07-24T05:45:47;17.90;99.90
8611;DHT22;4343;53.648;10.098;2023-07-24T05:48:13;17.90;99.90
8611;DHT22;4343;53.648;10.098;2023-07-24T05:50:38;17.90;99.90
8611;DHT22;4343;53.648;10.098;2023-07-24T05:53:04;17.90;99.90
8611;DHT22;4343;53.648;10.098;2023-07-24T05:55:29;17.90;99.90
8611;DHT22;4343;53.648;10.098;2023-07-24T05:57:55;17.90;99.90
8611;DHT22;4343;53.648;10.098;2023-07-24T06:00:20;17.90;99.90
8611;DHT22;4343;53.648;10.098;2023-07-24T06:02:46;18.00;99.90
8611;DHT22;4343;53.648;10.098;2023-07-24T06:05:11;18.00;99.90
8611;DHT22;4343;53.648;10.098;2023-07-24T06:07:37;18.00;99.90
8611;DHT22;4343;53.648;10.098;2023-07-24T06:10:03;18.00;99.90
8611;DHT22;4343;53.648;10.098;2023-07-24T06:12:28;18.00;99.90
8611;DHT22;4343;53.648;10.098;2023-07-24T06:14:54;18.00;99.90
8611;DHT22;4343;53.648;10.098;2023-07-24T06:17:19;18.10;99.90
8611;DHT22;4343;53.648;10.098;2023-07-24T06:19:45;18.10;99.90
8611;DHT22;4343;53.648;10.098;2023-07-24T06:22:11;18.10;99.90
8611;DHT22;4343;53.648;10.098;2023-07-24T06:24:36;18.10;99.90
8611;DHT22;4343;53.648;10.098;2023-07-24T06:27:03;18.10;99.90
8611;DHT22;4343;53.648;10.098;2023-07-24T06:29:31;18.20;99.90
8611;DHT22;4343;53.648;10.098;2023-07-24T06:31:57;18.20;99.90
8611;DHT22;4343;53.648;10.098;2023-07-24T06:34:23;18.20;99.90
8611;DHT22;4343;53.648;10.098;2023-07-24T06:36:48;18.30;99.90
8611;DHT22;4343;53.648;10.098;2023-07-24T06:39:14;18.30;99.90
8611;DHT22;4343;53.648;10.098;2023-07-24T06:41:39;18.30;99.90
8611;DHT22;4343;53.648;10.098;2023-07-24T06:44:05;18.40;99.90
8611;DHT22;4343;53.648;10.098;2023-07-24T06:46:30;18.40;99.90
8611;DHT22;4343;53.648;10.098;2023-07-24T06:48:56;18.50;99.90
8611;DHT22;4343;53.648;10.098;2023-07-24T06:51:21;18.50;99.90
8611;DHT22;4343;53.648;10.098;2023-07-24T06:53:47;18.60;99.90
8611;DHT22;4343;53.648;10.098;2023-07-24T06:56:12;18.60;99.90
8611;DHT22;4343;53.648;10.098;2023-07-24T06:58:39;18.60;99.90
8611;DHT22;4343;53.648;10.098;2023-07-24T07:01:07;18.60;99.90
8611;DHT22;4343;53.648;10.098;2023-07-24T07:03:33;18.70;99.90
8611;DHT22;4343;53.648;10.098;2023-07-24T07:06:00;18.70;99.90
8611;DHT22;4343;53.648;10.098;2023-07-24T07:08:26;18.70;99.90
8611;DHT22;4343;53.648;10.098;2023-07-24T07:10:59;18.70;99.90
8611;DHT22;4343;53.648;10.098;2023-07-24T07:13:25;18.70;99.90
8611;DHT22;4343;53.648;10.098;2023-07-24T07:15:51;18.80;99.90
8611;DHT22;4343;53.648;10.098;2023-07-24T07:18:16;18.80;99.90
8611;DHT22;4343;53.648;10.098;2023-07-24T07:20:46;18.80;99.90
8611;DHT22;4343;53.648;10.098;2023-07-24T07:23:12;18.80;99.90
8611;DHT22;4343;53.648;10.098;2023-07-24T07:25:37;18.80;99.90
8611;DHT22;4343;53.648;10.098;2023-07-24T07:28:03;18.80;99.90
8611;DHT22;4343;53.648;10.098;2023-07-24T07:30:28;18.80;99.90
8611;DHT22;4343;53.648;10.098;2023-07-24T07:32:54;18.80;99.90
8611;DHT22;4343;53.648;10.098;2023-07-24T07:35:19;18.80;99.90
8611;DHT22;4343;53.648;10.098;2023-07-24T07:37:46;18.80;99.90
8611;DHT22;4343;53.648;10.098;2023-07-24T07:40:11;18.80;99.90
8611;DHT22;4343;53.648;10.098;2023-07-24T07:42:37;18.80;99.90
8611;DHT22;4343;53.648;10.098;2023-07-24T07:45:03;18.90;99.90
8611;DHT22;4343;53.648;10.098;2023-07-24T07:47:29;18.90;99.90
8611;DHT22;4343;53.648;10.098;2023-07-24T07:49:54;18.90;99.90
8611;DHT22;4343;53.648;10.098;2023-07-24T07:52:20;18.90;99.90
8611;DHT22;4343;53.648;10.098;2023-07-24T07:54:48;18.90;99.90
8611;DHT22;4343;53.648;10.098;2023-07-24T07:57:14;19.00;99.90
8611;DHT22;4343;53.648;10.098;2023-07-24T07:59:39;18.90;99.90
8611;DHT22;4343;53.648;10.098;2023-07-24T08:02:05;19.00;99.90
8611;DHT22;4343;53.648;10.098;2023-07-24T08:04:31;19.00;99.90
8611;DHT22;4343;53.648;10.098;2023-07-24T08:06:56;19.10;99.90
8611;DHT22;4343;53.648;10.098;2023-07-24T08:09:22;19.10;99.90
8611;DHT22;4343;53.648;10.098;2023-07-24T08:11:49;19.10;99.90
8611;DHT22;4343;53.648;10.098;2023-07-24T08:14:16;19.10;99.90
8611;DHT22;4343;53.648;10.098;2023-07-24T08:16:41;19.20;99.90
8611;DHT22;4343;53.648;10.098;2023-07-24T08:19:07;19.20;99.90
8611;DHT22;4343;53.648;10.098;2023-07-24T08:21:32;19.20;99.90
8611;DHT22;4343;53.648;10.098;2023-07-24T08:23:58;19.30;99.90
8611;DHT22;4343;53.648;10.098;2023-07-24T08:26:23;19.30;99.90
8611;DHT22;4343;53.648;10.098;2023-07-24T08:28:52;19.30;99.90
8611;DHT22;4343;53.648;10.098;2023-07-24T08:31:17;19.30;99.90
8611;DHT22;4343;53.648;10.098;2023-07-24T08:33:43;19.40;99.90
8611;DHT22;4343;53.648;10.098;2023-07-24T08:36:09;19.40;99.90
8611;DHT22;4343;53.648;10.098;2023-07-24T08:38:37;19.40;99.90
8611;DHT22;4343;53.648;10.098;2023-07-24T08:41:13;19.50;99.90
8611;DHT22;4343;53.648;10.098;2023-07-24T08:43:40;19.50;99.90
8611;DHT22;4343;53.648;10.098;2023-07-24T08:46:06;19.50;99.90
8611;DHT22;4343;53.648;10.098;2023-07-24T08:48:37;19.60;99.90
8611;DHT22;4343;53.648;10.098;2023-07-24T08:51:10;19.60;99.90
8611;DHT22;4343;53.648;10.098;2023-07-24T08:53:38;19.60;99.90
8611;DHT22;4343;53.648;10.098;2023-07-24T08:56:09;19.60;99.90
8611;DHT22;4343;53.648;10.098;2023-07-24T08:58:35;19.70;99.90
8611;DHT22;4343;53.648;10.098;2023-07-24T09:01:02;19.60;99.90
8611;DHT22;4343;53.648;10.098;2023-07-24T09:03:29;19.60;99.90
8611;DHT22;4343;53.648;10.098;2023-07-24T09:05:55;19.60;99.90
8611;DHT22;4343;53.648;10.098;2023-07-24T09:08:31;19.70;99.90
8611;DHT22;4343;53.648;10.098;2023-07-24T09:10:58;19.70;99.90
8611;DHT22;4343;53.648;10.098;2023-07-24T09:13:24;19.70;99.90
8611;DHT22;4343;53.648;10.098;2023-07-24T09:15:49;19.70;99.90
8611;DHT22;4343;53.648;10.098;2023-07-24T09:18:15;19.70;99.90
8611;DHT22;4343;53.648;10.098;2023-07-24T09:20:43;19.80;99.90
8611;DHT22;4343;53.648;10.098;2023-07-24T09:23:10;19.90;99.90
8611;DHT22;4343;53.648;10.098;2023-07-24T09:25:36;20.00;99.90
8611;DHT22;4343;53.648;10.098;2023-07-24T09:28:14;20.20;99.90
8611;DHT22;4343;53.648;10.098;2023-07-24T09:30:40;20.30;99.90
8611;DHT22;4343;53.648;10.098;2023-07-24T09:33:06;20.50;99.90
8611;DHT22;4343;53.648;10.098;2023-07-24T09:35:32;20.70;99.90
8611;DHT22;4343;53.648;10.098;2023-07-24T09:38:01;20.80;99.90
8611;DHT22;4343;53.648;10.098;2023-07-24T09:40:27;21.00;99.90
8611;DHT22;4343;53.648;10.098;2023-07-24T09:42:52;21.00;99.90
8611;DHT22;4343;53.648;10.098;2023-07-24T09:45:18;21.10;99.90
8611;DHT22;4343;53.648;10.098;2023-07-24T09:47:43;21.10;99.90
8611;DHT22;4343;53.648;10.098;2023-07-24T09:50:09;21.10;99.90
8611;DHT22;4343;53.648;10.098;2023-07-24T09:52:36;21.10;99.90
8611;DHT22;4343;53.648;10.098;2023-07-24T09:55:12;21.00;99.90
8611;DHT22;4343;53.648;10.098;2023-07-24T09:57:41;21.00;99.90
8611;DHT22;4343;53.648;10.098;2023-07-24T10:00:09;21.10;99.90
8611;DHT22;4343;53.648;10.098;2023-07-24T10:02:36;21.10;99.90
8611;DHT22;4343;53.648;10.098;2023-07-24T10:05:02;21.30;99.90
8611;DHT22;4343;53.648;10.098;2023-07-24T10:07:28;21.50;99.90
8611;DHT22;4343;53.648;10.098;2023-07-24T10:09:54;21.60;99.90
8611;DHT22;4343;53.648;10.098;2023-07-24T10:12:21;21.70;99.90
8611;DHT22;4343;53.648;10.098;2023-07-24T10:14:47;21.80;99.90
8611;DHT22;4343;53.648;10.098;2023-07-24T10:17:13;21.90;99.90
8611;DHT22;4343;53.648;10.098;2023-07-24T10:19:40;22.00;99.90
8611;DHT22;4343;53.648;10.098;2023-07-24T10:22:09;22.00;99.90
8611;DHT22;4343;53.648;10.098;2023-07-24T10:24:35;22.10;99.90
8611;DHT22;4343;53.648;10.098;2023-07-24T10:27:02;22.20;99.90
8611;DHT22;4343;53.648;10.098;2023-07-24T10:29:28;22.20;99.90
8611;DHT22;4343;53.648;10.098;2023-07-24T10:31:54;22.30;99.90
8611;DHT22;4343;53.648;10.098;2023-07-24T10:34:20;22.30;99.90
8611;DHT22;4343;53.648;10.098;2023-07-24T10:36:46;22.30;99.90
8611;DHT22;4343;53.648;10.098;2023-07-24T10:39:16;22.30;99.90
8611;DHT22;4343;53.648;10.098;2023-07-24T10:41:42;22.20;99.90
8611;DHT22;4343;53.648;10.098;2023-07-24T10:44:10;22.20;99.90
8611;DHT22;4343;53.648;10.098;2023-07-24T10:46:40;22.20;99.90
8611;DHT22;4343;53.648;10.098;2023-07-24T10:49:07;22.10;99.90
8611;DHT22;4343;53.648;10.098;2023-07-24T10:51:33;22.20;99.90
8611;DHT22;4343;53.648;10.098;2023-07-24T10:54:01;22.20;99.90
8611;DHT22;4343;53.648;10.098;2023-07-24T10:56:27;22.20;99.90
8611;DHT22;4343;53.648;10.098;2023-07-24T10:58:53;22.30;99.90
8611;DHT22;4343;53.648;10.098;2023-07-24T11:01:18;22.30;99.90
8611;DHT22;4343;53.648;10.098;2023-07-24T11:03:44;22.40;99.90
8611;DHT22;4343;53.648;10.098;2023-07-24T11:06:18;22.40;99.90
8611;DHT22;4343;53.648;10.098;2023-07-24T11:08:56;22.40;99.90
8611;DHT22;4343;53.648;10.098;2023-07-24T11:11:31;22.50;99.90
8611;DHT22;4343;53.648;10.098;2023-07-24T11:13:57;22.60;99.90
8611;DHT22;4343;53.648;10.098;2023-07-24T11:16:23;22.70;99.90
8611;DHT22;4343;53.648;10.098;2023-07-24T11:18:50;22.80;99.90
8611;DHT22;4343;53.648;10.098;2023-07-24T11:21:17;22.80;99.90
8611;DHT22;4343;53.648;10.098;2023-07-24T11:23:50;22.90;99.90
8611;DHT22;4343;53.648;10.098;2023-07-24T11:26:21;22.90;99.90
8611;DHT22;4343;53.648;10.098;2023-07-24T11:28:48;23.00;99.90
8611;DHT22;4343;53.648;10.098;2023-07-24T11:31:13;23.10;99.90
8611;DHT22;4343;53.648;10.098;2023-07-24T11:33:41;23.20;99.90
8611;DHT22;4343;53.648;10.098;2023-07-24T11:36:07;23.30;99.90
8611;DHT22;4343;53.648;10.098;2023-07-24T11:38:33;23.40;99.90
8611;DHT22;4343;53.648;10.098;2023-07-24T11:40:59;23.50;99.90
8611;DHT22;4343;53.648;10.098;2023-07-24T11:43:24;23.70;99.90
8611;DHT22;4343;53.648;10.098;2023-07-24T11:45:52;23.80;99.90
8611;DHT22;4343;53.648;10.098;2023-07-24T11:48:19;23.80;99.90
8611;DHT22;4343;53.648;10.098;2023-07-24T11:50:51;23.80;99.90
8611;DHT22;4343;53.648;10.098;2023-07-24T11:53:30;23.80;99.90
8611;DHT22;4343;53.648;10.098;2023-07-24T11:56:00;23.70;99.90
8611;DHT22;4343;53.648;10.098;2023-07-24T11:58:28;23.70;99.90
8611;DHT22;4343;53.648;10.098;2023-07-24T12:00:55;23.60;99.90
8611;DHT22;4343;53.648;10.098;2023-07-24T12:03:22;23.50;99.90
8611;DHT22;4343;53.648;10.098;2023-07-24T12:05:49;23.60;99.90
8611;DHT22;4343;53.648;10.098;2023-07-24T12:08:16;23.60;99.90
8611;DHT22;4343;53.648;10.098;2023-07-24T12:10:43;23.60;99.90
8611;DHT22;4343;53.648;10.098;2023-07-24T12:13:09;23.60;99.90
8611;DHT22;4343;53.648;10.098;2023-07-24T12:15:35;23.70;99.90
8611;DHT22;4343;53.648;10.098;2023-07-24T12:18:01;23.80;99.90
8611;DHT22;4343;53.648;10.098;2023-07-24T12:20:27;24.00;99.90
8611;DHT22;4343;53.648;10.098;2023-07-24T12:22:53;24.10;99.90
8611;DHT22;4343;53.648;10.098;2023-07-24T12:25:19;24.40;99.90
8611;DHT22;4343;53.648;10.098;2023-07-24T12:27:46;24.60;99.90
8611;DHT22;4343;53.648;10.098;2023-07-24T12:30:12;24.80;99.90
8611;DHT22;4343;53.648;10.098;2023-07-24T12:32:38;25.00;99.90
8611;DHT22;4343;53.648;10.098;2023-07-24T12:35:04;25.20;99.90
8611;DHT22;4343;53.648;10.098;2023-07-24T12:37:30;25.40;99.90
8611;DHT22;4343;53.648;10.098;2023-07-24T12:39:56;25.50;99.90
8611;DHT22;4343;53.648;10.098;2023-07-24T12:42:22;25.70;99.90
8611;DHT22;4343;53.648;10.098;2023-07-24T12:44:48;25.80;99.90
8611;DHT22;4343;53.648;10.098;2023-07-24T12:47:14;25.80;99.90
8611;DHT22;4343;53.648;10.098;2023-07-24T12:49:40;25.90;99.90
8611;DHT22;4343;53.648;10.098;2023-07-24T12:52:05;26.00;99.90
8611;DHT22;4343;53.648;10.098;2023-07-24T12:54:31;26.10;99.90
8611;DHT22;4343;53.648;10.098;2023-07-24T12:56:57;26.10;99.90
8611;DHT22;4343;53.648;10.098;2023-07-24T12:59:23;26.30;99.90
8611;DHT22;4343;53.648;10.098;2023-07-24T13:01:48;26.30;99.90
8611;DHT22;4343;53.648;10.098;2023-07-24T13:04:14;26.40;99.90
8611;DHT22;4343;53.648;10.098;2023-07-24T13:06:40;26.40;99.90
8611;DHT22;4343;53.648;10.098;2023-07-24T13:09:05;26.40;99.90
8611;DHT22;4343;53.648;10.098;2023-07-24T13:11:31;26.40;99.90
8611;DHT22;4343;53.648;10.098;2023-07-24T13:13:57;26.30;99.90
8611;DHT22;4343;53.648;10.098;2023-07-24T13:16:23;26.20;99.90
8611;DHT22;4343;53.648;10.098;2023-07-24T13:18:48;26.10;99.90
8611;DHT22;4343;53.648;10.098;2023-07-24T13:21:14;26.10;99.90
8611;DHT22;4343;53.648;10.098;2023-07-24T13:23:40;26.10;99.90
8611;DHT22;4343;53.648;10.098;2023-07-24T13:26:06;26.10;99.90
8611;DHT22;4343;53.648;10.098;2023-07-24T13:28:36;26.10;99.90
8611;DHT22;4343;53.648;10.098;2023-07-24T13:31:16;26.20;99.90
8611;DHT22;4343;53.648;10.098;2023-07-24T13:33:42;26.30;99.90
8611;DHT22;4343;53.648;10.098;2023-07-24T13:36:08;26.40;99.90
8611;DHT22;4343;53.648;10.098;2023-07-24T13:38:34;26.60;99.90
8611;DHT22;4343;53.648;10.098;2023-07-24T13:40:59;26.70;99.90
8611;DHT22;4343;53.648;10.098;2023-07-24T13:43:25;26.80;99.90
8611;DHT22;4343;53.648;10.098;2023-07-24T13:45:51;26.90;99.90
8611;DHT22;4343;53.648;10.098;2023-07-24T13:48:16;27.00;99.90
8611;DHT22;4343;53.648;10.098;2023-07-24T13:50:42;27.10;99.90
8611;DHT22;4343;53.648;10.098;2023-07-24T13:53:07;27.10;99.90
8611;DHT22;4343;53.648;10.098;2023-07-24T13:55:33;27.20;99.90
8611;DHT22;4343;53.648;10.098;2023-07-24T13:57:59;27.30;99.90
8611;DHT22;4343;53.648;10.098;2023-07-24T14:00:24;27.40;99.90
8611;DHT22;4343;53.648;10.098;2023-07-24T14:02:50;27.50;99.90
8611;DHT22;4343;53.648;10.098;2023-07-24T14:05:16;27.70;99.90
8611;DHT22;4343;53.648;10.098;2023-07-24T14:07:41;27.80;99.90
8611;DHT22;4343;53.648;10.098;2023-07-24T14:10:08;27.80;99.90
8611;DHT22;4343;53.648;10.098;2023-07-24T14:12:34;27.70;99.90
8611;DHT22;4343;53.648;10.098;2023-07-24T14:14:59;27.60;99.90
8611;DHT22;4343;53.648;10.098;2023-07-24T14:17:25;27.50;99.90
8611;DHT22;4343;53.648;10.098;2023-07-24T14:19:50;27.50;99.90
8611;DHT22;4343;53.648;10.098;2023-07-24T14:22:16;27.40;99.90
8611;DHT22;4343;53.648;10.098;2023-07-24T14:24:41;27.20;99.90
8611;DHT22;4343;53.648;10.098;2023-07-24T14:27:07;27.00;99.90
8611;DHT22;4343;53.648;10.098;2023-07-24T14:29:32;26.80;99.90
8611;DHT22;4343;53.648;10.098;2023-07-24T14:31:58;26.60;99.90
8611;DHT22;4343;53.648;10.098;2023-07-24T14:34:24;26.50;99.90
8611;DHT22;4343;53.648;10.098;2023-07-24T14:36:49;26.40;99.90
8611;DHT22;4343;53.648;10.098;2023-07-24T14:39:15;26.30;99.90
8611;DHT22;4343;53.648;10.098;2023-07-24T14:41:40;26.10;99.90
8611;DHT22;4343;53.648;10.098;2023-07-24T14:44:06;26.00;99.90
8611;DHT22;4343;53.648;10.098;2023-07-24T14:46:31;25.90;99.90
8611;DHT22;4343;53.648;10.098;2023-07-24T14:48:57;25.80;99.90
8611;DHT22;4343;53.648;10.098;2023-07-24T14:51:23;25.80;99.90
8611;DHT22;4343;53.648;10.098;2023-07-24T14:53:49;25.70;99.90
8611;DHT22;4343;53.648;10.098;2023-07-24T14:56:15;25.60;99.90
8611;DHT22;4343;53.648;10.098;2023-07-24T14:58:42;25.50;99.90
8611;DHT22;4343;53.648;10.098;2023-07-24T15:01:10;25.30;99.90
8611;DHT22;4343;53.648;10.098;2023-07-24T15:03:36;25.20;99.90
8611;DHT22;4343;53.648;10.098;2023-07-24T15:06:01;25.10;99.90
8611;DHT22;4343;53.648;10.098;2023-07-24T15:08:30;25.00;99.90
8611;DHT22;4343;53.648;10.098;2023-07-24T15:10:56;24.90;99.90
8611;DHT22;4343;53.648;10.098;2023-07-24T15:13:21;24.80;99.90
8611;DHT22;4343;53.648;10.098;2023-07-24T15:15:47;24.70;99.90
8611;DHT22;4343;53.648;10.098;2023-07-24T15:18:12;24.60;99.90
8611;DHT22;4343;53.648;10.098;2023-07-24T15:20:38;24.50;99.90
8611;DHT22;4343;53.648;10.098;2023-07-24T15:23:03;24.30;99.90
8611;DHT22;4343;53.648;10.098;2023-07-24T15:25:29;24.10;99.90
8611;DHT22;4343;53.648;10.098;2023-07-24T15:27:55;24.00;99.90
8611;DHT22;4343;53.648;10.098;2023-07-24T15:30:20;23.90;99.90
8611;DHT22;4343;53.648;10.098;2023-07-24T15:32:47;23.80;99.90
8611;DHT22;4343;53.648;10.098;2023-07-24T15:35:14;23.70;99.90
8611;DHT22;4343;53.648;10.098;2023-07-24T15:37:40;23.60;99.90
8611;DHT22;4343;53.648;10.098;2023-07-24T15:40:06;23.50;99.90
8611;DHT22;4343;53.648;10.098;2023-07-24T15:42:31;23.30;99.90
8611;DHT22;4343;53.648;10.098;2023-07-24T15:44:57;23.00;99.90